SJLH weather

Jacamim Airport
Bonfim, Roraima, Brazil

Public forecast

Using degrees Celsius for public forecast. Weather courtesy of forecast.io.

Closest aviation weather report (METAR) to Jacamim Airport

Closest report is Atlas Brasil Cantanhede Airport, 67.6 nm (125.1 km) NW. Retrieved 2020/02/18 00:00 UTC (7 minutes ago):

SBBV 180000Z 08007KT CAVOK 31/20 Q1009

Closest aviation forecast (TAF) to Jacamim Airport

Closest forecast is Atlas Brasil Cantanhede Airport, 67.6 nm (125.1 km) NW. Retrieved 2020-02-18 00:00 UTC (7 minutes ago):

TAF SBBV 172100Z 1800/1824 10010KT 9999 FEW040 TN26/1809Z TX34/1818Z RMK PHD